Time;durP1;ratioP1;P1;durP2;ratioP2;P2;SDS_P1;SDS_P2;PMS_P1;PMS_P2;Temp;Humidity;BMP_temperature;BMP_pressure;BME280_temperature;BME280_humidity;BME280_pressure;Samples;Min_cycle;Max_cycle;Signal;HPM_P1;HPM_P2
2021/10/24 00:00:29;;;;;;;12.55;4.45;;;;;;;;;;5015573;28;20268;-90
2021/10/24 00:02:56;;;;;;;11.77;4.13;;;;;;;;;;5013981;28;20034;-90
2021/10/24 00:05:21;;;;;;;20.02;4.15;;;;;;;;;;5012624;28;20029;-90
2021/10/24 00:07:47;;;;;;;13.55;4.20;;;;;;;;;;5014040;28;20014;-90
2021/10/24 00:10:12;;;;;;;10.35;3.65;;;;;;;;;;5012688;28;20382;-89
2021/10/24 00:12:37;;;;;;;12.85;3.78;;;;;;;;;;5014076;28;20440;-89
2021/10/24 00:15:03;;;;;;;13.73;4.03;;;;;;;;;;5013949;28;20014;-89
2021/10/24 00:17:29;;;;;;;25.58;4.20;;;;;;;;;;5013738;28;20148;-89
2021/10/24 00:19:55;;;;;;;11.73;3.50;;;;;;;;;;5013293;28;20069;-89
2021/10/24 00:22:20;;;;;;;16.63;3.97;;;;;;;;;;5014162;28;20564;-89
2021/10/24 00:24:45;;;;;;;8.88;3.08;;;;;;;;;;5012634;28;20157;-89
2021/10/24 00:27:11;;;;;;;11.02;3.28;;;;;;;;;;5012482;28;20022;-89
2021/10/24 00:29:37;;;;;;;12.65;3.30;;;;;;;;;;5013844;28;20029;-89
2021/10/24 00:32:03;;;;;;;13.65;3.10;;;;;;;;;;5013867;28;20018;-89
2021/10/24 00:34:28;;;;;;;14.65;3.50;;;;;;;;;;5013780;28;20088;-89
2021/10/24 00:36:53;;;;;;;12.25;3.25;;;;;;;;;;5012663;28;20516;-89
2021/10/24 00:39:19;;;;;;;11.57;3.22;;;;;;;;;;5018079;28;20061;-90
2021/10/24 00:41:45;;;;;;;13.63;3.43;;;;;;;;;;5013744;28;20069;-89
2021/10/24 00:44:20;;;;;;;9.55;3.08;;;;;;;;;;5012637;28;20257;-89
2021/10/24 00:46:46;;;;;;;11.07;3.22;;;;;;;;;;5013680;28;20052;-90
2021/10/24 00:49:12;;;;;;;9.55;3.35;;;;;;;;;;5013709;28;20017;-89
2021/10/24 00:51:37;;;;;;;12.88;3.15;;;;;;;;;;5012531;28;20065;-89
2021/10/24 00:54:02;;;;;;;16.05;4.88;;;;;;;;;;5012561;28;20081;-89
2021/10/24 00:56:27;;;;;;;14.50;3.50;;;;;;;;;;5019174;28;20089;-89
2021/10/24 00:58:53;;;;;;;15.20;5.07;;;;;;;;;;5016091;28;20257;-89
2021/10/24 01:01:18;;;;;;;10.65;3.47;;;;;;;;;;5015956;28;20042;-89
2021/10/24 01:03:43;;;;;;;9.73;3.20;;;;;;;;;;5016102;28;20029;-89
2021/10/24 01:06:09;;;;;;;10.67;3.20;;;;;;;;;;5015946;28;20021;-89
2021/10/24 01:08:35;;;;;;;13.30;3.67;;;;;;;;;;5015852;28;20358;-89
2021/10/24 01:11:01;;;;;;;12.68;3.95;;;;;;;;;;5015747;28;20026;-89
2021/10/24 01:13:26;;;;;;;11.93;3.40;;;;;;;;;;5017125;28;20084;-88
2021/10/24 01:15:52;;;;;;;15.02;3.83;;;;;;;;;;5016485;28;20053;-88
2021/10/24 01:18:17;;;;;;;12.13;5.20;;;;;;;;;;5015772;28;20026;-89
2021/10/24 01:20:42;;;;;;;12.98;4.95;;;;;;;;;;5016881;28;20032;-89
2021/10/24 01:23:09;;;;;;;12.33;3.90;;;;;;;;;;5016909;28;20073;-89
2021/10/24 01:25:34;;;;;;;14.82;4.22;;;;;;;;;;5015417;28;20265;-89
2021/10/24 01:27:59;;;;;;;13.00;3.95;;;;;;;;;;5015684;28;20025;-89
2021/10/24 01:30:25;;;;;;;12.77;4.15;;;;;;;;;;5015603;28;20072;-89
2021/10/24 01:32:50;;;;;;;15.73;3.88;;;;;;;;;;5020553;28;20485;-89
2021/10/24 01:35:15;;;;;;;14.50;4.05;;;;;;;;;;5017915;28;20025;-89
2021/10/24 01:37:43;;;;;;;14.63;4.25;;;;;;;;;;5016675;28;20061;-89
2021/10/24 01:40:10;;;;;;;15.95;5.57;;;;;;;;;;5016634;28;20033;-89
2021/10/24 01:42:44;;;;;;;14.88;3.85;;;;;;;;;;5015243;28;20045;-89
2021/10/24 01:45:09;;;;;;;18.50;4.57;;;;;;;;;;5015277;28;20032;-89
2021/10/24 01:47:35;;;;;;;15.38;4.07;;;;;;;;;;5016446;28;20021;-89
2021/10/24 01:50:00;;;;;;;9.75;4.13;;;;;;;;;;5015051;28;20080;-89
2021/10/24 01:52:25;;;;;;;10.25;4.95;;;;;;;;;;5015081;28;20792;-88
2021/10/24 01:54:50;;;;;;;14.70;5.00;;;;;;;;;;5017252;28;20132;-88
2021/10/24 01:57:15;;;;;;;16.15;4.72;;;;;;;;;;5014803;28;20327;-89
2021/10/24 01:59:41;;;;;;;18.97;4.63;;;;;;;;;;5015078;28;20025;-89
2021/10/24 02:02:07;;;;;;;15.50;4.78;;;;;;;;;;5016105;28;20292;-88
2021/10/24 02:04:32;;;;;;;12.10;4.47;;;;;;;;;;5015922;28;20100;-89
2021/10/24 02:06:57;;;;;;;20.77;4.55;;;;;;;;;;5014758;28;20553;-88
2021/10/24 02:09:22;;;;;;;19.00;4.22;;;;;;;;;;5014783;28;20018;-89
2021/10/24 02:11:47;;;;;;;11.77;4.43;;;;;;;;;;5014687;28;20434;-89
2021/10/24 02:14:13;;;;;;;17.40;5.13;;;;;;;;;;5016148;28;20018;-89
2021/10/24 02:16:38;;;;;;;15.77;5.30;;;;;;;;;;5016217;28;20347;-89
2021/10/24 02:19:03;;;;;;;10.10;4.33;;;;;;;;;;5014660;28;20263;-89
2021/10/24 02:21:29;;;;;;;11.90;4.27;;;;;;;;;;5014362;28;20304;-89
2021/10/24 02:23:54;;;;;;;12.30;4.90;;;;;;;;;;5014489;28;20256;-89
2021/10/24 02:26:19;;;;;;;10.13;4.20;;;;;;;;;;5014338;28;20465;-89
2021/10/24 02:28:44;;;;;;;14.82;4.80;;;;;;;;;;5014465;28;20260;-89
2021/10/24 02:31:10;;;;;;;15.52;4.65;;;;;;;;;;5015537;28;20029;-88
2021/10/24 02:33:35;;;;;;;18.38;4.63;;;;;;;;;;5017161;28;20372;-88
2021/10/24 02:36:00;;;;;;;14.10;5.17;;;;;;;;;;5014276;28;20075;-89
2021/10/24 02:38:25;;;;;;;15.40;4.75;;;;;;;;;;5015547;28;20261;-89
2021/10/24 02:40:50;;;;;;;15.55;4.75;;;;;;;;;;5014072;28;20076;-89
2021/10/24 02:43:16;;;;;;;19.30;4.50;;;;;;;;;;5013994;28;20065;-88
2021/10/24 02:45:41;;;;;;;16.35;5.25;;;;;;;;;;5014030;28;20314;-89
2021/10/24 02:48:07;;;;;;;16.17;4.18;;;;;;;;;;5014034;28;20018;-89
2021/10/24 02:50:32;;;;;;;17.75;4.72;;;;;;;;;;5015184;28;20856;-89
2021/10/24 02:52:57;;;;;;;12.50;4.88;;;;;;;;;;5016548;28;20024;-89
2021/10/24 02:55:22;;;;;;;13.57;5.07;;;;;;;;;;5014963;28;20056;-89
2021/10/24 02:57:48;;;;;;;12.03;5.20;;;;;;;;;;5013659;28;20014;-89
2021/10/24 03:00:13;;;;;;;12.73;4.95;;;;;;;;;;5015035;28;20779;-89
2021/10/24 03:02:38;;;;;;;8.27;4.03;;;;;;;;;;5015018;28;20113;-89
2021/10/24 03:05:07;;;;;;;15.80;4.88;;;;;;;;;;5014870;28;20021;-89
2021/10/24 03:07:32;;;;;;;16.92;5.30;;;;;;;;;;5013689;28;20398;-89
2021/10/24 03:09:57;;;;;;;14.60;4.95;;;;;;;;;;5013655;28;20096;-89
2021/10/24 03:12:23;;;;;;;15.20;5.37;;;;;;;;;;5015013;28;20026;-89
2021/10/24 03:14:48;;;;;;;16.63;5.78;;;;;;;;;;5013708;28;20741;-89
2021/10/24 03:17:13;;;;;;;13.60;5.30;;;;;;;;;;5013028;28;20026;-89
2021/10/24 03:19:39;;;;;;;16.55;5.82;;;;;;;;;;5013523;28;20093;-89
2021/10/24 03:22:04;;;;;;;14.48;5.38;;;;;;;;;;5013308;28;20398;-89
2021/10/24 03:24:30;;;;;;;21.13;5.95;;;;;;;;;;5014619;28;20102;-88
2021/10/24 03:26:56;;;;;;;19.67;5.50;;;;;;;;;;5013514;28;20033;-89
2021/10/24 03:29:21;;;;;;;13.48;5.30;;;;;;;;;;5014104;28;20036;-88
2021/10/24 03:31:46;;;;;;;12.35;5.40;;;;;;;;;;5014510;28;20018;-88
2021/10/24 03:34:12;;;;;;;19.00;6.10;;;;;;;;;;5013332;28;20029;-89
2021/10/24 03:36:37;;;;;;;14.05;5.63;;;;;;;;;;5014328;28;20253;-88
2021/10/24 03:39:03;;;;;;;15.02;5.68;;;;;;;;;;5013434;28;20018;-88
2021/10/24 03:41:28;;;;;;;16.80;6.03;;;;;;;;;;5012897;28;20512;-88
2021/10/24 03:43:54;;;;;;;16.02;6.18;;;;;;;;;;5012945;28;20018;-88
2021/10/24 03:46:19;;;;;;;19.73;6.68;;;;;;;;;;5014184;28;20812;-89
2021/10/24 03:48:44;;;;;;;13.02;6.25;;;;;;;;;;5013335;28;20028;-89
2021/10/24 03:51:09;;;;;;;15.50;6.60;;;;;;;;;;5014145;28;20025;-88
2021/10/24 03:53:34;;;;;;;15.33;6.03;;;;;;;;;;5014016;28;20050;-89
2021/10/24 03:56:00;;;;;;;18.17;7.00;;;;;;;;;;5012882;28;20253;-89
2021/10/24 03:58:25;;;;;;;17.27;7.43;;;;;;;;;;5012775;28;20017;-88
2021/10/24 04:00:50;;;;;;;17.77;7.00;;;;;;;;;;5012749;28;20293;-89
2021/10/24 04:03:15;;;;;;;17.60;6.37;;;;;;;;;;5012793;28;20084;-88
2021/10/24 04:05:47;;;;;;;17.17;7.33;;;;;;;;;;5012691;28;20257;-89
2021/10/24 04:08:12;;;;;;;18.63;7.85;;;;;;;;;;5012750;28;20881;-88
2021/10/24 04:10:37;;;;;;;19.25;7.28;;;;;;;;;;5013276;28;20117;-88
2021/10/24 04:13:02;;;;;;;17.02;8.02;;;;;;;;;;5012622;28;20026;-88
2021/10/24 04:15:28;;;;;;;23.50;7.85;;;;;;;;;;5012677;28;20088;-89
2021/10/24 04:17:53;;;;;;;19.75;7.90;;;;;;;;;;5012982;28;20020;-89
2021/10/24 04:20:19;;;;;;;19.10;7.43;;;;;;;;;;5013802;28;20420;-88
2021/10/24 04:22:45;;;;;;;17.42;8.13;;;;;;;;;;5013889;28;20041;-88
2021/10/24 04:25:11;;;;;;;17.23;8.07;;;;;;;;;;5012690;28;20014;-88
2021/10/24 04:27:36;;;;;;;14.10;8.57;;;;;;;;;;5014343;28;20018;-89
2021/10/24 04:30:02;;;;;;;15.70;8.30;;;;;;;;;;5014969;28;20032;-88
2021/10/24 04:32:27;;;;;;;21.95;9.93;;;;;;;;;;5017782;28;20071;-88
2021/10/24 04:34:53;;;;;;;16.30;7.80;;;;;;;;;;5017670;28;20017;-88
2021/10/24 04:37:18;;;;;;;18.27;8.37;;;;;;;;;;5016597;28;20748;-89
2021/10/24 04:39:44;;;;;;;15.73;8.05;;;;;;;;;;5017874;28;20249;-89
2021/10/24 04:42:09;;;;;;;19.90;9.20;;;;;;;;;;5017538;28;20386;-89
2021/10/24 04:44:34;;;;;;;17.67;8.93;;;;;;;;;;5017310;28;20378;-89
2021/10/24 04:46:59;;;;;;;17.25;8.60;;;;;;;;;;5017631;28;20076;-89
2021/10/24 04:49:25;;;;;;;19.13;9.27;;;;;;;;;;5017987;28;20022;-89
2021/10/24 04:51:50;;;;;;;18.70;8.60;;;;;;;;;;5017543;28;20516;-89
2021/10/24 04:54:15;;;;;;;18.70;9.65;;;;;;;;;;5017120;28;20297;-89
2021/10/24 04:56:40;;;;;;;15.98;8.38;;;;;;;;;;5015906;28;20017;-88
2021/10/24 04:59:06;;;;;;;24.43;10.17;;;;;;;;;;5016117;28;20058;-89
2021/10/24 05:01:31;;;;;;;18.70;9.95;;;;;;;;;;5032858;28;20379;-89
2021/10/24 05:03:56;;;;;;;17.67;9.17;;;;;;;;;;5017317;28;20105;-88
2021/10/24 05:06:21;;;;;;;24.63;10.03;;;;;;;;;;5015967;28;20257;-88
2021/10/24 05:08:46;;;;;;;27.83;10.00;;;;;;;;;;5016244;28;20272;-88
2021/10/24 05:11:11;;;;;;;24.03;9.97;;;;;;;;;;5032417;28;20161;-88
2021/10/24 05:13:37;;;;;;;23.40;10.20;;;;;;;;;;5015833;28;20276;-88
2021/10/24 05:16:02;;;;;;;17.92;9.45;;;;;;;;;;5016932;28;20261;-89
2021/10/24 05:18:27;;;;;;;19.48;9.88;;;;;;;;;;5015807;28;20172;-88
2021/10/24 05:20:53;;;;;;;21.80;9.02;;;;;;;;;;5015632;28;20524;-88
2021/10/24 05:23:18;;;;;;;17.02;9.13;;;;;;;;;;5015547;28;20129;-89
2021/10/24 05:25:43;;;;;;;17.58;9.00;;;;;;;;;;5015650;28;20072;-88
2021/10/24 05:28:08;;;;;;;22.23;10.00;;;;;;;;;;5017195;28;20021;-88
2021/10/24 05:30:34;;;;;;;18.25;8.63;;;;;;;;;;5016670;28;20021;-88
2021/10/24 05:32:59;;;;;;;21.70;9.65;;;;;;;;;;5015323;28;20452;-88
2021/10/24 05:35:24;;;;;;;17.50;9.13;;;;;;;;;;5015370;28;20041;-88
2021/10/24 05:37:49;;;;;;;19.17;9.90;;;;;;;;;;5015177;28;20128;-88
2021/10/24 05:40:15;;;;;;;22.67;9.67;;;;;;;;;;5014587;28;20052;-89
2021/10/24 05:42:40;;;;;;;12.70;8.90;;;;;;;;;;5016346;28;20371;-89
2021/10/24 05:45:06;;;;;;;24.13;10.30;;;;;;;;;;5015994;28;20020;-89
2021/10/24 05:47:31;;;;;;;21.95;9.75;;;;;;;;;;5031602;28;20782;-89
2021/10/24 05:49:56;;;;;;;20.23;9.47;;;;;;;;;;5015148;28;20026;-89
2021/10/24 05:52:22;;;;;;;21.73;9.52;;;;;;;;;;5015036;28;20257;-89
2021/10/24 05:54:47;;;;;;;21.90;9.43;;;;;;;;;;5015856;28;20426;-89
2021/10/24 05:57:12;;;;;;;19.80;9.07;;;;;;;;;;5015959;28;20068;-89
2021/10/24 05:59:38;;;;;;;16.52;9.45;;;;;;;;;;5014471;28;20030;-89
2021/10/24 06:02:03;;;;;;;17.17;9.93;;;;;;;;;;5014562;28;20084;-89
2021/10/24 06:04:28;;;;;;;19.02;9.10;;;;;;;;;;5014508;28;20030;-89
2021/10/24 06:06:54;;;;;;;18.92;9.27;;;;;;;;;;5015752;28;20053;-89
2021/10/24 06:09:28;;;;;;;18.77;9.32;;;;;;;;;;5017809;28;20083;-89
2021/10/24 06:12:01;;;;;;;19.95;9.55;;;;;;;;;;5018541;28;20099;-89
2021/10/24 06:14:27;;;;;;;19.45;8.90;;;;;;;;;;5015231;28;20109;-89
2021/10/24 06:16:52;;;;;;;15.65;8.20;;;;;;;;;;5015880;28;20088;-89
2021/10/24 06:19:17;;;;;;;20.83;9.13;;;;;;;;;;5014587;28;20276;-89
2021/10/24 06:21:42;;;;;;;16.92;9.00;;;;;;;;;;5014548;28;20018;-89
2021/10/24 06:24:07;;;;;;;21.77;10.02;;;;;;;;;;5014401;28;20022;-89
2021/10/24 06:26:33;;;;;;;17.92;8.15;;;;;;;;;;5030904;28;20025;-89
2021/10/24 06:28:58;;;;;;;21.70;8.35;;;;;;;;;;5015511;28;20022;-89
2021/10/24 06:31:23;;;;;;;17.10;8.45;;;;;;;;;;5013973;28;20351;-89
2021/10/24 06:33:49;;;;;;;20.17;8.60;;;;;;;;;;5015532;28;20029;-89
2021/10/24 06:36:15;;;;;;;15.85;7.95;;;;;;;;;;5015304;28;20269;-89
2021/10/24 06:38:40;;;;;;;16.50;8.07;;;;;;;;;;5013944;28;20024;-89
2021/10/24 06:41:06;;;;;;;16.80;7.80;;;;;;;;;;5014031;28;20014;-88
2021/10/24 06:43:31;;;;;;;13.02;7.13;;;;;;;;;;5013758;28;20041;-89
2021/10/24 06:45:56;;;;;;;17.57;6.90;;;;;;;;;;5013908;28;20026;-88
2021/10/24 06:48:21;;;;;;;19.48;8.70;;;;;;;;;;5018069;28;20351;-89
2021/10/24 06:50:47;;;;;;;17.48;7.47;;;;;;;;;;5013812;28;20034;-89
2021/10/24 06:53:12;;;;;;;19.40;6.97;;;;;;;;;;5013161;28;20087;-89
2021/10/24 06:55:37;;;;;;;13.43;7.87;;;;;;;;;;5013715;28;20037;-89
2021/10/24 06:58:02;;;;;;;16.30;6.63;;;;;;;;;;5015471;28;20336;-89
2021/10/24 07:00:28;;;;;;;12.32;6.53;;;;;;;;;;5013817;28;20765;-89
2021/10/24 07:02:54;;;;;;;14.60;6.88;;;;;;;;;;5013804;28;20037;-89
2021/10/24 07:05:20;;;;;;;17.27;6.78;;;;;;;;;;5015115;28;20010;-89
2021/10/24 07:07:45;;;;;;;14.52;6.28;;;;;;;;;;5013454;28;20041;-89
2021/10/24 07:10:11;;;;;;;18.95;6.90;;;;;;;;;;5013710;28;20022;-89
2021/10/24 07:12:36;;;;;;;12.18;6.78;;;;;;;;;;5014904;28;20105;-89
2021/10/24 07:15:05;;;;;;;14.43;7.18;;;;;;;;;;5013815;28;20480;-89
2021/10/24 07:17:31;;;;;;;12.45;6.10;;;;;;;;;;5015905;28;20022;-89
2021/10/24 07:19:56;;;;;;;13.02;5.68;;;;;;;;;;5013514;28;20105;-89
2021/10/24 07:22:21;;;;;;;12.85;6.60;;;;;;;;;;5013548;28;20033;-89
2021/10/24 07:24:46;;;;;;;14.98;6.18;;;;;;;;;;5013817;28;20022;-89
2021/10/24 07:27:12;;;;;;;14.23;6.17;;;;;;;;;;5013173;28;20079;-88
2021/10/24 07:29:37;;;;;;;15.15;6.75;;;;;;;;;;5013232;28;20018;-89
2021/10/24 07:32:02;;;;;;;18.25;6.80;;;;;;;;;;5014342;28;20018;-89
2021/10/24 07:34:28;;;;;;;12.82;5.40;;;;;;;;;;5014232;28;20053;-89
2021/10/24 07:36:53;;;;;;;13.97;6.50;;;;;;;;;;5013038;28;20045;-89
2021/10/24 07:39:18;;;;;;;11.73;5.63;;;;;;;;;;5019675;28;20267;-89
2021/10/24 07:41:48;;;;;;;12.60;5.47;;;;;;;;;;5030462;28;20670;-89
2021/10/24 07:44:15;;;;;;;12.20;5.78;;;;;;;;;;5032333;28;20438;-89
2021/10/24 07:46:40;;;;;;;13.52;5.90;;;;;;;;;;5031699;28;20013;-89
2021/10/24 07:49:05;;;;;;;15.97;6.30;;;;;;;;;;5032328;28;20116;-89
2021/10/24 07:51:31;;;;;;;12.20;5.30;;;;;;;;;;5032300;28;20268;-89
2021/10/24 07:53:56;;;;;;;14.02;5.47;;;;;;;;;;5031288;28;20059;-89
2021/10/24 07:56:22;;;;;;;13.07;6.65;;;;;;;;;;5030085;28;20060;-89
2021/10/24 07:58:48;;;;;;;14.57;6.38;;;;;;;;;;5032768;28;20052;-89
2021/10/24 08:01:14;;;;;;;10.15;4.97;;;;;;;;;;5037053;28;20672;-89
2021/10/24 08:03:39;;;;;;;13.40;5.47;;;;;;;;;;5030850;28;20037;-89
2021/10/24 08:06:06;;;;;;;11.38;5.97;;;;;;;;;;5030833;28;20519;-89
2021/10/24 08:08:31;;;;;;;12.73;5.55;;;;;;;;;;5031304;28;20018;-87
2021/10/24 08:10:58;;;;;;;16.75;5.07;;;;;;;;;;5031203;28;20040;-88
2021/10/24 08:13:26;;;;;;;12.18;5.47;;;;;;;;;;5027060;28;20088;-89
2021/10/24 08:18:21;;;;;;;23.52;6.53;;;;;;;;;;5062179;22;20064;-88
2021/10/24 08:20:46;;;;;;;17.73;5.68;;;;;;;;;;5035376;28;20029;-88
2021/10/24 08:23:13;;;;;;;23.52;6.72;;;;;;;;;;5035226;28;20812;-89
2021/10/24 08:25:38;;;;;;;13.57;5.43;;;;;;;;;;5035513;28;20082;-88
2021/10/24 08:28:04;;;;;;;10.55;5.53;;;;;;;;;;5036641;28;20017;-88
2021/10/24 08:30:29;;;;;;;11.10;5.75;;;;;;;;;;5026942;28;20013;-89
2021/10/24 08:32:55;;;;;;;15.63;5.15;;;;;;;;;;5033340;28;20029;-88
2021/10/24 08:35:20;;;;;;;11.63;5.03;;;;;;;;;;5015552;28;20104;-88
2021/10/24 08:37:47;;;;;;;13.95;5.30;;;;;;;;;;5032935;28;20363;-88
2021/10/24 08:40:12;;;;;;;18.88;6.97;;;;;;;;;;5013658;28;20021;-89
2021/10/24 08:42:39;;;;;;;12.85;4.97;;;;;;;;;;5015156;28;20022;-89
2021/10/24 08:45:05;;;;;;;15.77;5.75;;;;;;;;;;5033239;28;20477;-89
2021/10/24 08:47:31;;;;;;;14.88;5.18;;;;;;;;;;5015531;28;20025;-89
2021/10/24 08:49:56;;;;;;;14.73;5.10;;;;;;;;;;5023323;28;20470;-89
2021/10/24 08:52:23;;;;;;;11.52;5.13;;;;;;;;;;5051869;28;20020;-89
2021/10/24 08:54:50;;;;;;;8.05;4.93;;;;;;;;;;5040484;28;20452;-89
2021/10/24 08:57:28;;;;;;;11.70;6.18;;;;;;;;;;5053051;28;20036;-89
2021/10/24 09:00:01;;;;;;;12.32;4.70;;;;;;;;;;5034862;28;20025;-89
2021/10/24 09:02:46;;;;;;;13.48;5.57;;;;;;;;;;5039639;28;20029;-88
2021/10/24 09:05:25;;;;;;;16.00;4.63;;;;;;;;;;5012987;28;20571;-89
2021/10/24 09:07:53;;;;;;;10.88;4.38;;;;;;;;;;5015184;28;20024;-89
2021/10/24 09:10:36;;;;;;;11.70;4.78;;;;;;;;;;5032708;28;20362;-88
2021/10/24 09:13:03;;;;;;;11.52;4.90;;;;;;;;;;5014434;28;20083;-90
2021/10/24 09:15:30;;;;;;;11.00;4.68;;;;;;;;;;5032190;28;20491;-89
2021/10/24 09:18:09;;;;;;;12.65;4.75;;;;;;;;;;5021414;28;20061;-89
2021/10/24 09:20:35;;;;;;;9.98;4.60;;;;;;;;;;5018032;28;20014;-89
2021/10/24 09:23:07;;;;;;;10.00;5.05;;;;;;;;;;5018622;28;20061;-89
2021/10/24 09:25:32;;;;;;;9.02;4.80;;;;;;;;;;5023545;28;20104;-89
2021/10/24 09:28:00;;;;;;;13.00;5.15;;;;;;;;;;5035288;28;20123;-89
2021/10/24 09:30:27;;;;;;;10.30;4.43;;;;;;;;;;5055704;28;20792;-89
2021/10/24 09:35:37;;;;;;;10.85;4.63;;;;;;;;;;1792203;22;20120;-88
2021/10/24 09:38:04;;;;;;;18.45;5.75;;;;;;;;;;5053813;28;20037;-88
2021/10/24 09:40:40;;;;;;;12.65;5.57;;;;;;;;;;5037595;28;20372;-88
2021/10/24 09:43:17;;;;;;;11.18;6.32;;;;;;;;;;5037437;28;20040;-91
2021/10/24 09:45:50;;;;;;;13.93;7.13;;;;;;;;;;5349865;22;20045;-88
2021/10/24 09:48:17;;;;;;;10.50;6.00;;;;;;;;;;5037180;28;20017;-88
2021/10/24 09:50:42;;;;;;;14.27;7.00;;;;;;;;;;5036095;28;20017;-88
2021/10/24 09:53:16;;;;;;;14.27;7.35;;;;;;;;;;5037880;28;20427;-87
2021/10/24 09:55:43;;;;;;;14.45;6.05;;;;;;;;;;5055873;28;20427;-87
2021/10/24 09:58:09;;;;;;;15.77;6.25;;;;;;;;;;5047872;28;20021;-87
2021/10/24 10:00:35;;;;;;;11.32;5.40;;;;;;;;;;5052262;28;20056;-88
2021/10/24 10:03:00;;;;;;;12.05;6.18;;;;;;;;;;5037596;28;20028;-88
2021/10/24 10:05:26;;;;;;;10.23;5.25;;;;;;;;;;5055259;28;20392;-88
2021/10/24 10:07:52;;;;;;;10.15;4.75;;;;;;;;;;5055380;28;20020;-88
2021/10/24 10:10:18;;;;;;;12.07;4.82;;;;;;;;;;5024588;28;20067;-88
2021/10/24 10:12:46;;;;;;;12.20;4.30;;;;;;;;;;5015243;28;20021;-88
2021/10/24 10:15:11;;;;;;;10.38;5.72;;;;;;;;;;5017507;28;20017;-88
2021/10/24 10:17:37;;;;;;;11.52;4.68;;;;;;;;;;5018245;28;20030;-88
2021/10/24 10:20:21;;;;;;;11.95;4.35;;;;;;;;;;5017569;28;20018;-88
2021/10/24 10:23:00;;;;;;;8.52;4.50;;;;;;;;;;5032974;28;20072;-88
2021/10/24 10:25:29;;;;;;;10.68;4.82;;;;;;;;;;5017073;28;20028;-88
2021/10/24 10:27:55;;;;;;;13.80;5.15;;;;;;;;;;5017240;28;20025;-88
2021/10/24 10:30:33;;;;;;;9.57;4.70;;;;;;;;;;5017416;28;20044;-88
2021/10/24 10:33:00;;;;;;;11.80;5.30;;;;;;;;;;5017041;28;20013;-88
2021/10/24 10:35:27;;;;;;;9.57;4.65;;;;;;;;;;5015095;28;20052;-88
2021/10/24 10:37:52;;;;;;;8.80;4.70;;;;;;;;;;5034868;28;20080;-88
2021/10/24 10:40:20;;;;;;;8.23;4.95;;;;;;;;;;5017378;28;20527;-88
2021/10/24 10:42:45;;;;;;;10.48;4.63;;;;;;;;;;5017514;28;20061;-88
2021/10/24 10:45:14;;;;;;;10.05;4.40;;;;;;;;;;5054979;28;20438;-88
2021/10/24 10:47:52;;;;;;;7.90;4.20;;;;;;;;;;5036088;28;20017;-88
2021/10/24 10:50:38;;;;;;;7.82;4.40;;;;;;;;;;5054526;28;20089;-88
2021/10/24 10:53:04;;;;;;;17.38;5.00;;;;;;;;;;5037126;28;20047;-88
2021/10/24 10:56:08;;;;;;;6.40;4.45;;;;;;;;;;5036969;28;20063;-88
2021/10/24 10:58:36;;;;;;;9.40;5.18;;;;;;;;;;4992231;28;20034;-88
2021/10/24 11:01:02;;;;;;;10.55;4.75;;;;;;;;;;4974357;28;20022;-88
2021/10/24 11:04:00;;;;;;;9.35;4.55;;;;;;;;;;4995834;28;20110;-88
2021/10/24 11:06:28;;;;;;;13.48;4.97;;;;;;;;;;4963733;28;20029;-88
2021/10/24 11:08:57;;;;;;;9.05;4.63;;;;;;;;;;5050251;28;20520;-88
2021/10/24 11:11:54;;;;;;;9.50;5.10;;;;;;;;;;5034215;28;20020;-88
2021/10/24 11:14:20;;;;;;;10.05;4.80;;;;;;;;;;5037481;28;20032;-88
2021/10/24 11:16:46;;;;;;;9.88;5.10;;;;;;;;;;5041855;28;20049;-87
2021/10/24 11:19:31;;;;;;;9.75;4.30;;;;;;;;;;5036317;28;20040;-88
2021/10/24 11:21:57;;;;;;;9.27;4.90;;;;;;;;;;5034240;28;20110;-89
2021/10/24 11:24:22;;;;;;;14.27;5.72;;;;;;;;;;5035346;28;20013;-88
2021/10/24 11:26:55;;;;;;;9.63;4.30;;;;;;;;;;5074441;23;20137;-89
2021/10/24 11:29:21;;;;;;;8.45;4.55;;;;;;;;;;5035647;28;20017;-88
2021/10/24 11:31:46;;;;;;;9.48;4.53;;;;;;;;;;5035817;28;20023;-89
2021/10/24 11:34:29;;;;;;;8.25;4.90;;;;;;;;;;5051831;28;20433;-89
2021/10/24 11:36:58;;;;;;;9.75;4.07;;;;;;;;;;5033479;28;20108;-90
2021/10/24 11:39:24;;;;;;;12.40;4.10;;;;;;;;;;5045916;28;20020;-89
2021/10/24 11:41:49;;;;;;;7.97;3.97;;;;;;;;;;5055792;28;20407;-89
2021/10/24 11:44:15;;;;;;;13.90;5.10;;;;;;;;;;5066726;28;20543;-89
2021/10/24 11:46:40;;;;;;;10.95;4.63;;;;;;;;;;5039723;28;20024;-89
2021/10/24 11:49:06;;;;;;;8.73;4.50;;;;;;;;;;5033694;28;20457;-89
2021/10/24 11:51:34;;;;;;;7.93;3.60;;;;;;;;;;5036107;28;20024;-89
2021/10/24 11:54:02;;;;;;;13.25;4.75;;;;;;;;;;5146862;23;20049;-89
2021/10/24 12:01:30;;;;;;;;;;;;;;;;;;5065119;22;20049;-89
2021/10/24 12:04:03;;;;;;;8.20;3.45;;;;;;;;;;5040256;28;20873;-89
2021/10/24 12:06:56;;;;;;;10.43;3.33;;;;;;;;;;5034951;28;20025;-89
2021/10/24 12:09:39;;;;;;;8.77;3.17;;;;;;;;;;5115576;22;20051;-89
2021/10/24 12:12:25;;;;;;;6.78;2.70;;;;;;;;;;5014074;28;20034;-89
2021/10/24 12:15:02;;;;;;;9.63;3.33;;;;;;;;;;5015725;28;20620;-89
2021/10/24 12:17:30;;;;;;;8.45;3.25;;;;;;;;;;5014903;28;20017;-89
2021/10/24 12:20:11;;;;;;;10.25;3.30;;;;;;;;;;5015093;28;20032;-89
2021/10/24 12:22:37;;;;;;;8.30;3.33;;;;;;;;;;5013423;28;20465;-89
2021/10/24 12:27:38;;;;;;;6.93;3.35;;;;;;;;;;5073460;22;20135;-90
2021/10/24 12:30:03;;;;;;;9.25;3.15;;;;;;;;;;5033679;28;20025;-89
2021/10/24 12:32:29;;;;;;;9.00;3.50;;;;;;;;;;5033053;28;20017;-90
2021/10/24 12:34:59;;;;;;;10.10;3.33;;;;;;;;;;5033873;28;20492;-89
2021/10/24 12:37:24;;;;;;;7.00;3.00;;;;;;;;;;5034982;28;20468;-90
2021/10/24 12:40:09;;;;;;;4.07;3.00;;;;;;;;;;5034061;28;20025;-90
2021/10/24 12:42:35;;;;;;;7.53;3.10;;;;;;;;;;5034461;28;20037;-89
2021/10/24 12:45:10;;;;;;;4.82;2.63;;;;;;;;;;5033574;28;20861;-89
2021/10/24 12:47:35;;;;;;;7.38;3.20;;;;;;;;;;5033508;28;20020;-89
2021/10/24 12:50:03;;;;;;;7.50;2.67;;;;;;;;;;5039664;28;20029;-89
2021/10/24 12:52:29;;;;;;;6.10;2.60;;;;;;;;;;5022276;28;20071;-90
2021/10/24 12:55:00;;;;;;;7.38;2.72;;;;;;;;;;5016692;28;20029;-90
2021/10/24 12:57:26;;;;;;;6.70;3.45;;;;;;;;;;5015524;28;20079;-89
2021/10/24 12:59:55;;;;;;;4.28;2.97;;;;;;;;;;5019182;28;20021;-90
2021/10/24 13:02:22;;;;;;;11.65;2.88;;;;;;;;;;5017257;28;20122;-90
2021/10/24 13:04:47;;;;;;;7.70;3.25;;;;;;;;;;5016427;28;20951;-90
2021/10/24 13:07:13;;;;;;;4.40;2.85;;;;;;;;;;5018210;28;20021;-90
2021/10/24 13:09:44;;;;;;;8.13;3.50;;;;;;;;;;5014213;23;20100;-89
2021/10/24 13:12:16;;;;;;;4.45;2.78;;;;;;;;;;5155138;23;20056;-90
2021/10/24 13:14:46;;;;;;;6.60;2.90;;;;;;;;;;5037943;28;20078;-90
2021/10/24 13:17:11;;;;;;;7.32;3.10;;;;;;;;;;5037508;28;20117;-90
2021/10/24 13:19:40;;;;;;;6.43;3.13;;;;;;;;;;5054695;28;20025;-90
2021/10/24 13:24:56;;;;;;;6.60;3.53;;;;;;;;;;5076073;28;20035;-90
2021/10/24 13:27:22;;;;;;;12.27;4.05;;;;;;;;;;5057931;28;20017;-89
2021/10/24 13:29:48;;;;;;;8.02;3.53;;;;;;;;;;5056658;28;20024;-89
2021/10/24 13:32:13;;;;;;;7.10;3.75;;;;;;;;;;5055650;28;20769;-89
2021/10/24 13:34:38;;;;;;;8.93;3.70;;;;;;;;;;5060844;28;20016;-89
2021/10/24 13:37:04;;;;;;;11.90;4.53;;;;;;;;;;5043169;28;20302;-90
2021/10/24 13:39:29;;;;;;;9.37;3.53;;;;;;;;;;5038424;28;20335;-90
2021/10/24 13:41:54;;;;;;;10.13;3.83;;;;;;;;;;5055167;28;20279;-89
2021/10/24 13:44:19;;;;;;;5.30;2.80;;;;;;;;;;5036421;28;20075;-89
2021/10/24 13:46:45;;;;;;;7.73;3.27;;;;;;;;;;5022396;28;20799;-89
2021/10/24 13:49:10;;;;;;;10.40;3.83;;;;;;;;;;5035000;28;20341;-90
2021/10/24 13:51:35;;;;;;;6.35;2.60;;;;;;;;;;5047537;23;20075;-90
2021/10/24 13:54:01;;;;;;;7.97;3.20;;;;;;;;;;5035617;28;20242;-89
2021/10/24 13:56:26;;;;;;;8.60;3.03;;;;;;;;;;5037546;28;20013;-90
2021/10/24 13:58:53;;;;;;;6.57;3.10;;;;;;;;;;5042390;28;20017;-88
2021/10/24 14:01:18;;;;;;;6.88;2.88;;;;;;;;;;5041193;28;20021;-89
2021/10/24 14:03:51;;;;;;;6.57;2.58;;;;;;;;;;5037546;28;20036;-90
2021/10/24 14:06:17;;;;;;;6.05;2.30;;;;;;;;;;5072041;22;20545;-90
2021/10/24 14:08:42;;;;;;;6.82;2.90;;;;;;;;;;5033939;28;20116;-90
2021/10/24 14:11:08;;;;;;;8.38;2.67;;;;;;;;;;5037090;28;20028;-90
2021/10/24 14:13:35;;;;;;;6.15;2.28;;;;;;;;;;5037835;28;20810;-90
2021/10/24 14:16:02;;;;;;;9.68;2.70;;;;;;;;;;5032049;28;20037;-90
2021/10/24 14:18:28;;;;;;;6.18;2.67;;;;;;;;;;5035988;28;20025;-89
2021/10/24 14:20:53;;;;;;;9.45;2.90;;;;;;;;;;5038002;28;20461;-90
2021/10/24 14:23:19;;;;;;;4.80;2.67;;;;;;;;;;5054645;28;20537;-90
2021/10/24 14:25:45;;;;;;;8.23;2.63;;;;;;;;;;5037178;28;20601;-90
2021/10/24 14:28:12;;;;;;;7.93;3.00;;;;;;;;;;5053688;28;20020;-90
2021/10/24 14:30:37;;;;;;;5.50;3.05;;;;;;;;;;5036573;28;20049;-90
2021/10/24 14:33:03;;;;;;;6.82;2.63;;;;;;;;;;5016668;28;20048;-90
2021/10/24 14:35:28;;;;;;;6.43;2.80;;;;;;;;;;5014486;28;20037;-90
2021/10/24 14:37:56;;;;;;;10.13;3.55;;;;;;;;;;5017176;28;20428;-90
2021/10/24 14:45:40;;;;;;;8.50;3.58;;;;;;;;;;5036939;28;20808;-89
2021/10/24 14:48:07;;;;;;;8.27;3.05;;;;;;;;;;5015435;28;20029;-89
2021/10/24 14:50:33;;;;;;;10.23;3.30;;;;;;;;;;5015650;28;20100;-89
2021/10/24 14:52:58;;;;;;;7.22;2.80;;;;;;;;;;5015007;28;20057;-88